createdAt,value
2018-08-27T00:01:30.610Z,100255.00
2018-08-27T00:03:59.731Z,100255.00
2018-08-27T00:06:28.775Z,100245.00
2018-08-27T00:08:57.834Z,100244.00
2018-08-27T00:11:26.882Z,100240.00
2018-08-27T00:13:55.990Z,100236.00
2018-08-27T00:16:25.351Z,100236.00
2018-08-27T00:18:54.524Z,100234.00
2018-08-27T00:21:23.651Z,100229.00
2018-08-27T00:23:52.894Z,100231.00
2018-08-27T00:26:21.923Z,100227.00
2018-08-27T00:28:50.977Z,100227.00
2018-08-27T00:31:20.115Z,100224.00
2018-08-27T00:33:49.169Z,100226.00
2018-08-27T00:36:18.189Z,100227.00
2018-08-27T00:38:47.244Z,100228.00
2018-08-27T00:41:16.502Z,100227.00
2018-08-27T00:43:45.556Z,100227.00
2018-08-27T00:46:14.582Z,100215.00
2018-08-27T00:48:43.658Z,100208.00
2018-08-27T00:51:12.722Z,100189.00
2018-08-27T00:53:41.767Z,100192.00
2018-08-27T00:56:10.924Z,100193.00
2018-08-27T00:58:40.004Z,100187.00
2018-08-27T01:01:09.050Z,100177.00
2018-08-27T01:03:38.091Z,100181.00
2018-08-27T01:06:07.184Z,100175.00
2018-08-27T01:08:36.256Z,100169.00
2018-08-27T01:11:05.654Z,100166.00
2018-08-27T01:13:34.724Z,100173.00
2018-08-27T01:16:03.898Z,100175.00
2018-08-27T01:18:32.990Z,100175.00
2018-08-27T01:21:02.201Z,100172.00
2018-08-27T01:23:31.399Z,100177.00
2018-08-27T01:26:00.505Z,100137.00
2018-08-27T01:28:29.581Z,100172.00
2018-08-27T01:30:58.614Z,100165.00
2018-08-27T01:33:27.685Z,100151.00
2018-08-27T01:35:56.722Z,100156.00
2018-08-27T01:38:25.805Z,100165.00
2018-08-27T01:40:54.836Z,100140.00
2018-08-27T01:43:23.894Z,100147.00
2018-08-27T01:45:52.916Z,100140.00
2018-08-27T01:48:22.768Z,100132.00
2018-08-27T01:50:51.831Z,100125.00
2018-08-27T01:53:20.887Z,100124.00
2018-08-27T01:55:49.945Z,100111.00
2018-08-27T01:58:19.007Z,100106.00
2018-08-27T02:00:48.080Z,100092.00
2018-08-27T02:03:17.174Z,100090.00
2018-08-27T02:05:46.199Z,100097.00
2018-08-27T02:08:15.298Z,100098.00
2018-08-27T02:10:44.350Z,100096.00
2018-08-27T02:13:13.468Z,100088.00
2018-08-27T02:15:42.556Z,100096.00
2018-08-27T02:18:11.636Z,100092.00
2018-08-27T02:20:40.693Z,100123.00
2018-08-27T02:23:10.006Z,100098.00
2018-08-27T02:25:39.085Z,100086.00
2018-08-27T02:28:08.119Z,100087.00
2018-08-27T02:30:37.219Z,100093.00
2018-08-27T02:33:06.413Z,100086.00
2018-08-27T02:35:35.441Z,100094.00
2018-08-27T02:38:04.855Z,100085.00
2018-08-27T02:40:33.845Z,100082.00
2018-08-27T02:43:02.878Z,100077.00
2018-08-27T02:45:32.138Z,100076.00
2018-08-27T02:48:01.558Z,100076.00
2018-08-27T02:50:33.810Z,100070.00
2018-08-27T02:53:03.346Z,100077.00
2018-08-27T02:55:32.382Z,100073.00
2018-08-27T02:58:01.457Z,100057.00
2018-08-27T03:00:30.603Z,100064.00
2018-08-27T03:02:59.635Z,100059.00
2018-08-27T03:05:28.722Z,100058.00
2018-08-27T03:07:57.763Z,100049.00
2018-08-27T03:10:26.760Z,100054.00
2018-08-27T03:12:55.831Z,100043.00
2018-08-27T03:15:25.044Z,100045.00
2018-08-27T03:17:54.134Z,100044.00
2018-08-27T03:20:23.319Z,100039.00
2018-08-27T03:22:52.425Z,100038.00
2018-08-27T03:25:21.682Z,100036.00
2018-08-27T03:27:50.833Z,100031.00
2018-08-27T03:30:19.920Z,100036.00
2018-08-27T03:32:48.974Z,100036.00
2018-08-27T03:35:18.102Z,100031.00
2018-08-27T03:37:47.157Z,100035.00
2018-08-27T03:40:16.184Z,100035.00
2018-08-27T03:42:45.265Z,100032.00
2018-08-27T03:45:14.345Z,100030.00
2018-08-27T03:47:43.428Z,100026.00
2018-08-27T03:50:12.997Z,100019.00
2018-08-27T03:52:42.088Z,100014.00
2018-08-27T03:55:12.162Z,100013.00
2018-08-27T03:57:41.237Z,100007.00
2018-08-27T04:00:10.485Z,100005.00
2018-08-27T04:02:39.533Z,100015.00
2018-08-27T04:05:08.884Z,100013.00
2018-08-27T04:07:37.927Z,100013.00
2018-08-27T04:10:07.324Z,100008.00
2018-08-27T04:12:36.616Z,99999.00
2018-08-27T04:15:06.088Z,99999.00
2018-08-27T04:17:35.154Z,100002.00
2018-08-27T04:20:04.737Z,100004.00
2018-08-27T04:22:34.376Z,100008.00
2018-08-27T04:25:10.038Z,100005.00
2018-08-27T04:27:39.098Z,99996.00
2018-08-27T04:30:08.393Z,99990.00
2018-08-27T04:32:37.494Z,99980.00
2018-08-27T04:35:06.777Z,99980.00
2018-08-27T04:37:35.970Z,99981.00
2018-08-27T04:40:05.037Z,99981.00
2018-08-27T04:42:34.247Z,99982.00
2018-08-27T04:45:03.966Z,99979.00
2018-08-27T04:47:33.054Z,99973.00
2018-08-27T04:50:02.075Z,99977.00
2018-08-27T04:52:31.178Z,99978.00
2018-08-27T04:55:00.221Z,99968.00
2018-08-27T04:57:29.460Z,99952.00
2018-08-27T05:00:01.615Z,99948.00
2018-08-27T05:02:30.695Z,99942.00
2018-08-27T05:04:59.746Z,99942.00
2018-08-27T05:07:29.375Z,99939.00
2018-08-27T05:09:58.393Z,99935.00
2018-08-27T05:12:27.517Z,99939.00
2018-08-27T05:14:56.747Z,99946.00
2018-08-27T05:17:25.948Z,99949.00
2018-08-27T05:19:55.685Z,99934.00
2018-08-27T05:22:24.708Z,99943.00
2018-08-27T05:24:53.771Z,99941.00
2018-08-27T05:27:23.225Z,99952.00
2018-08-27T05:29:52.505Z,99934.00
2018-08-27T05:32:21.560Z,99936.00
2018-08-27T05:34:50.609Z,99934.00
2018-08-27T05:37:19.704Z,99939.00
2018-08-27T05:39:48.844Z,99930.00
2018-08-27T05:42:18.102Z,99933.00
2018-08-27T05:44:47.200Z,99939.00
2018-08-27T05:47:16.396Z,99930.00
2018-08-27T05:49:45.574Z,99923.00
2018-08-27T05:52:14.746Z,99923.00
2018-08-27T05:54:44.090Z,99929.00
2018-08-27T05:57:13.154Z,99934.00
2018-08-27T05:59:43.575Z,99919.00
2018-08-27T06:02:12.641Z,99921.00
2018-08-27T06:04:41.656Z,99922.00
2018-08-27T06:07:10.701Z,99912.00
2018-08-27T06:09:39.786Z,99919.00
2018-08-27T06:12:08.851Z,99921.00
2018-08-27T06:14:37.895Z,99912.00
2018-08-27T06:17:07.011Z,99907.00
2018-08-27T06:19:36.029Z,99899.00
2018-08-27T06:22:05.170Z,99910.00
2018-08-27T06:24:34.163Z,99887.00
2018-08-27T06:27:03.196Z,99893.00
2018-08-27T06:29:32.338Z,99888.00
2018-08-27T06:32:01.400Z,99886.00
2018-08-27T06:34:30.483Z,99868.00
2018-08-27T06:36:59.649Z,99876.00
2018-08-27T06:39:28.800Z,99872.00
2018-08-27T06:41:57.914Z,99877.00
2018-08-27T06:44:27.343Z,99877.00
2018-08-27T06:46:56.490Z,99876.00
2018-08-27T06:49:26.486Z,99882.00
2018-08-27T06:51:55.892Z,99870.00
2018-08-27T06:54:25.107Z,99864.00
2018-08-27T06:56:54.334Z,99869.00
2018-08-27T06:59:23.418Z,99871.00
2018-08-27T07:01:52.555Z,99873.00
2018-08-27T07:04:21.641Z,99863.00
2018-08-27T07:06:50.679Z,99871.00
2018-08-27T07:09:19.711Z,99870.00
2018-08-27T07:11:48.862Z,99869.00
2018-08-27T07:14:17.883Z,99870.00
2018-08-27T07:16:46.995Z,99859.00
2018-08-27T07:19:16.146Z,99862.00
2018-08-27T07:21:45.185Z,99863.00
2018-08-27T07:24:14.234Z,99860.00
2018-08-27T07:26:43.359Z,99858.00
2018-08-27T07:29:12.461Z,99855.00
2018-08-27T07:31:41.576Z,99854.00
2018-08-27T07:34:10.838Z,99849.00
2018-08-27T07:36:39.991Z,99848.00
2018-08-27T07:39:10.122Z,99849.00
2018-08-27T07:41:39.274Z,99847.00
2018-08-27T07:44:08.475Z,99850.00
2018-08-27T07:46:37.857Z,99853.00
2018-08-27T07:49:07.163Z,99850.00
2018-08-27T07:51:36.475Z,99849.00
2018-08-27T07:54:05.870Z,99847.00
2018-08-27T07:56:35.241Z,99848.00
2018-08-27T07:59:04.386Z,99857.00
2018-08-27T08:01:34.448Z,99851.00
2018-08-27T08:04:03.655Z,99863.00
2018-08-27T08:06:32.719Z,99864.00
2018-08-27T08:09:01.965Z,99871.00
2018-08-27T08:11:31.040Z,99872.00
2018-08-27T08:14:00.200Z,99881.00
2018-08-27T08:16:29.222Z,99881.00
2018-08-27T08:19:00.583Z,99882.00
2018-08-27T08:21:29.806Z,99878.00
2018-08-27T08:23:58.868Z,99892.00
2018-08-27T08:26:27.936Z,99890.00
2018-08-27T08:28:57.000Z,99884.00
2018-08-27T08:31:26.608Z,99882.00
2018-08-27T08:33:55.755Z,99894.00
2018-08-27T08:36:27.368Z,99881.00
2018-08-27T08:38:56.492Z,99891.00
2018-08-27T08:41:25.514Z,99883.00
2018-08-27T08:43:54.608Z,99891.00
2018-08-27T08:46:23.811Z,99895.00
2018-08-27T08:48:53.066Z,99888.00
2018-08-27T08:51:22.329Z,99908.00
2018-08-27T08:53:51.550Z,99895.00
2018-08-27T08:56:20.663Z,99905.00
2018-08-27T08:58:49.948Z,99903.00
2018-08-27T09:01:19.338Z,99903.00
2018-08-27T09:03:48.785Z,99909.00
2018-08-27T09:06:18.037Z,99900.00
2018-08-27T09:08:47.299Z,99900.00
2018-08-27T09:11:16.447Z,99904.00
2018-08-27T09:13:45.500Z,99904.00
2018-08-27T09:16:14.569Z,99917.00
2018-08-27T09:18:43.753Z,99910.00
2018-08-27T09:21:12.794Z,99903.00
2018-08-27T09:23:41.953Z,99908.00
2018-08-27T09:26:11.102Z,99901.00
2018-08-27T09:28:40.177Z,99910.00
2018-08-27T09:31:09.231Z,99918.00
2018-08-27T09:33:38.520Z,99912.00
2018-08-27T09:36:07.613Z,99918.00
2018-08-27T09:38:36.652Z,99919.00
2018-08-27T09:41:05.687Z,99913.00
2018-08-27T09:43:34.764Z,99925.00
2018-08-27T09:46:03.851Z,99913.00
2018-08-27T09:48:33.102Z,99923.00
2018-08-27T09:51:02.269Z,99919.00
2018-08-27T09:53:31.392Z,99920.00
2018-08-27T09:56:00.651Z,99917.00
2018-08-27T09:58:29.862Z,99916.00
2018-08-27T10:01:04.902Z,99917.00
2018-08-27T10:03:34.051Z,99921.00
2018-08-27T10:06:03.106Z,99919.00
2018-08-27T10:08:32.444Z,99918.00
2018-08-27T10:11:01.808Z,99927.00
2018-08-27T10:13:31.074Z,99926.00
2018-08-27T10:16:00.407Z,99916.00
2018-08-27T10:18:29.617Z,99924.00
2018-08-27T10:20:59.148Z,99913.00
2018-08-27T10:23:28.745Z,99916.00
2018-08-27T10:25:57.911Z,99918.00
2018-08-27T10:28:27.082Z,99921.00
2018-08-27T10:30:56.148Z,99924.00
2018-08-27T10:33:25.233Z,99917.00
2018-08-27T10:35:54.282Z,99927.00
2018-08-27T10:38:23.372Z,99920.00
2018-08-27T10:40:52.416Z,99914.00
2018-08-27T10:43:21.471Z,99909.00
2018-08-27T10:45:50.618Z,99918.00
2018-08-27T10:48:19.756Z,99903.00
2018-08-27T10:50:48.835Z,99908.00
2018-08-27T10:53:17.910Z,99922.00
2018-08-27T10:55:46.968Z,99902.00
2018-08-27T10:58:16.033Z,99916.00
2018-08-27T11:00:45.155Z,99913.00
2018-08-27T11:03:14.255Z,99914.00
2018-08-27T11:05:43.284Z,99913.00
2018-08-27T11:08:12.435Z,99930.00
2018-08-27T11:10:41.735Z,99932.00
2018-08-27T11:13:10.832Z,99929.00
2018-08-27T11:15:40.111Z,99923.00
2018-08-27T11:18:09.585Z,99918.00
2018-08-27T11:20:38.809Z,99916.00
2018-08-27T11:23:08.024Z,99909.00
2018-08-27T11:25:37.155Z,99920.00
2018-08-27T11:28:06.366Z,99920.00
2018-08-27T11:30:35.524Z,99929.00
2018-08-27T11:33:04.577Z,99924.00
2018-08-27T11:35:33.615Z,99929.00
2018-08-27T11:38:02.707Z,99925.00
2018-08-27T11:40:31.777Z,99925.00
2018-08-27T11:43:00.862Z,99940.00
2018-08-27T11:45:29.919Z,99939.00
2018-08-27T11:47:58.962Z,99934.00
2018-08-27T11:50:28.845Z,99944.00
2018-08-27T11:52:57.861Z,99931.00
2018-08-27T11:55:26.892Z,99934.00
2018-08-27T11:57:55.946Z,99939.00
2018-08-27T12:00:30.268Z,99939.00
2018-08-27T12:02:59.314Z,99940.00
2018-08-27T12:05:28.384Z,99939.00
2018-08-27T12:07:57.409Z,99942.00
2018-08-27T12:10:26.551Z,99946.00
2018-08-27T12:12:55.718Z,99938.00
2018-08-27T12:15:24.859Z,99930.00
2018-08-27T12:17:54.057Z,99941.00
2018-08-27T12:20:23.142Z,99939.00
2018-08-27T12:22:52.260Z,99941.00
2018-08-27T12:25:21.441Z,99949.00
2018-08-27T12:27:50.597Z,99949.00
2018-08-27T12:30:19.830Z,99960.00
2018-08-27T12:32:48.994Z,99956.00
2018-08-27T12:35:18.095Z,99961.00
2018-08-27T12:37:47.250Z,99958.00
2018-08-27T12:40:16.269Z,99965.00
2018-08-27T12:42:45.352Z,99968.00
2018-08-27T12:45:14.392Z,99986.00
2018-08-27T12:47:43.484Z,100001.00
2018-08-27T12:50:12.581Z,100012.00
2018-08-27T12:52:41.672Z,100035.00
2018-08-27T12:55:10.718Z,100024.00
2018-08-27T12:57:40.386Z,100022.00
2018-08-27T13:00:14.611Z,100019.00
2018-08-27T13:02:44.671Z,100017.00
2018-08-27T13:05:13.875Z,100022.00
2018-08-27T13:07:44.030Z,100025.00
2018-08-27T13:10:13.082Z,100016.00
2018-08-27T13:12:42.288Z,100014.00
2018-08-27T13:15:11.379Z,100019.00
2018-08-27T13:17:40.523Z,100017.00
2018-08-27T13:20:09.611Z,100021.00
2018-08-27T13:22:38.755Z,100020.00
2018-08-27T13:25:07.803Z,100024.00
2018-08-27T13:27:36.901Z,100033.00
2018-08-27T13:30:06.272Z,100034.00
2018-08-27T13:32:35.344Z,100032.00
2018-08-27T13:35:04.519Z,100039.00
2018-08-27T13:37:33.577Z,100051.00
2018-08-27T13:40:02.863Z,100057.00
2018-08-27T13:42:33.156Z,100054.00
2018-08-27T13:45:02.749Z,100068.00
2018-08-27T13:50:19.233Z,100067.00
2018-08-27T13:52:48.473Z,100031.00
2018-08-27T13:55:19.909Z,100073.00
2018-08-27T13:57:57.810Z,99992.00
2018-08-27T14:00:26.991Z,100066.00
2018-08-27T14:02:56.099Z,100070.00
2018-08-27T14:05:26.827Z,100064.00
2018-08-27T14:07:55.936Z,100069.00
2018-08-27T14:10:24.960Z,100076.00
2018-08-27T14:12:54.563Z,100075.00
2018-08-27T14:15:23.917Z,100042.00
2018-08-27T14:17:53.021Z,100101.00
2018-08-27T14:20:22.229Z,100097.00
2018-08-27T14:22:51.280Z,100099.00
2018-08-27T14:25:20.352Z,100107.00
2018-08-27T14:27:49.398Z,100099.00
2018-08-27T14:30:18.496Z,100100.00
2018-08-27T14:32:47.622Z,100097.00
2018-08-27T14:35:16.691Z,100102.00
2018-08-27T14:37:46.142Z,100107.00
2018-08-27T14:40:16.785Z,100115.00
2018-08-27T14:42:45.891Z,100106.00
2018-08-27T14:45:15.046Z,100123.00
2018-08-27T14:47:44.351Z,100120.00
2018-08-27T14:50:13.591Z,100132.00
2018-08-27T14:52:42.746Z,100131.00
2018-08-27T14:55:11.898Z,100136.00
2018-08-27T14:57:41.194Z,100140.00
2018-08-27T15:00:10.803Z,100140.00
2018-08-27T15:02:40.028Z,100129.00
2018-08-27T15:05:09.223Z,100132.00
2018-08-27T15:07:38.285Z,100145.00
2018-08-27T15:10:07.919Z,100141.00
2018-08-27T15:12:37.024Z,100145.00
2018-08-27T15:15:07.046Z,100145.00
2018-08-27T15:17:36.404Z,100147.00
2018-08-27T15:20:05.600Z,100145.00
2018-08-27T15:22:34.688Z,100151.00
2018-08-27T15:25:03.795Z,100147.00
2018-08-27T15:27:32.915Z,100152.00
2018-08-27T15:30:02.008Z,100152.00
2018-08-27T15:32:31.161Z,100167.00
2018-08-27T15:35:00.382Z,100158.00
2018-08-27T15:37:29.483Z,100161.00
2018-08-27T15:39:58.645Z,100168.00
2018-08-27T15:42:27.967Z,100177.00
2018-08-27T15:45:00.655Z,100174.00
2018-08-27T15:47:30.015Z,100177.00
2018-08-27T15:49:59.111Z,100179.00
2018-08-27T15:52:28.357Z,100182.00
2018-08-27T15:54:57.517Z,100181.00
2018-08-27T15:57:26.767Z,100188.00
2018-08-27T15:59:56.499Z,100190.00
2018-08-27T16:02:25.660Z,100197.00
2018-08-27T16:04:54.778Z,100204.00
2018-08-27T16:07:23.922Z,100185.00
2018-08-27T16:09:53.923Z,100207.00
2018-08-27T16:12:23.932Z,100210.00
2018-08-27T16:14:54.019Z,100208.00
2018-08-27T16:17:23.161Z,100211.00
2018-08-27T16:19:53.871Z,100211.00
2018-08-27T16:22:23.561Z,100228.00
2018-08-27T16:24:52.946Z,100219.00
2018-08-27T16:27:22.419Z,100224.00
2018-08-27T16:29:51.726Z,100240.00
2018-08-27T16:32:21.587Z,100261.00
2018-08-27T16:34:50.644Z,100238.00
2018-08-27T16:37:19.692Z,100249.00
2018-08-27T16:39:48.819Z,100251.00
2018-08-27T16:42:17.879Z,100251.00
2018-08-27T16:44:46.939Z,100253.00
2018-08-27T16:47:16.035Z,100261.00
2018-08-27T16:49:45.169Z,100255.00
2018-08-27T16:52:14.190Z,100269.00
2018-08-27T16:54:43.253Z,100271.00
2018-08-27T16:57:12.345Z,100273.00
2018-08-27T16:59:41.406Z,100277.00
2018-08-27T17:02:10.519Z,100276.00
2018-08-27T17:04:39.663Z,100287.00
2018-08-27T17:07:08.861Z,100288.00
2018-08-27T17:09:38.022Z,100297.00
2018-08-27T17:12:07.552Z,100298.00
2018-08-27T17:14:36.727Z,100305.00
2018-08-27T17:17:05.874Z,100308.00
2018-08-27T17:19:35.013Z,100289.00
2018-08-27T17:22:04.106Z,100298.00
2018-08-27T17:24:33.267Z,100297.00
2018-08-27T17:27:02.380Z,100307.00
2018-08-27T17:29:31.621Z,100313.00
2018-08-27T17:32:00.794Z,100311.00
2018-08-27T17:34:29.867Z,100314.00
2018-08-27T17:36:58.989Z,100312.00
2018-08-27T17:39:28.150Z,100325.00
2018-08-27T17:41:57.310Z,100330.00
2018-08-27T17:44:26.421Z,100341.00
2018-08-27T17:46:55.683Z,100338.00
2018-08-27T17:49:24.913Z,100343.00
2018-08-27T17:51:54.100Z,100341.00
2018-08-27T17:54:23.272Z,100349.00
2018-08-27T17:56:52.449Z,100357.00
2018-08-27T17:59:21.665Z,100360.00
2018-08-27T18:01:50.841Z,100359.00
2018-08-27T18:04:20.222Z,100360.00
2018-08-27T18:06:49.684Z,100361.00
2018-08-27T18:09:19.040Z,100371.00
2018-08-27T18:11:48.375Z,100383.00
2018-08-27T18:14:18.553Z,100380.00
2018-08-27T18:16:48.352Z,100382.00
2018-08-27T18:19:17.631Z,100381.00
2018-08-27T18:21:47.303Z,100396.00
2018-08-27T18:24:16.756Z,100391.00
2018-08-27T18:26:47.979Z,100396.00
2018-08-27T18:29:18.324Z,100406.00
2018-08-27T18:31:48.943Z,100419.00
2018-08-27T18:34:18.454Z,100416.00
2018-08-27T18:36:49.005Z,100413.00
2018-08-27T18:39:18.608Z,100411.00
2018-08-27T18:41:47.925Z,100425.00
2018-08-27T18:44:17.314Z,100432.00
2018-08-27T18:46:47.396Z,100442.00
2018-08-27T18:49:16.612Z,100451.00
2018-08-27T18:51:46.199Z,100453.00
2018-08-27T18:54:15.391Z,100456.00
2018-08-27T18:56:45.979Z,100466.00
2018-08-27T18:59:15.041Z,100468.00
2018-08-27T19:01:46.252Z,100474.00
2018-08-27T19:04:15.652Z,100471.00
2018-08-27T19:06:45.006Z,100484.00
2018-08-27T19:09:14.547Z,100479.00
2018-08-27T19:11:43.853Z,100483.00
2018-08-27T19:14:13.910Z,100481.00
2018-08-27T19:16:43.164Z,100489.00
2018-08-27T19:19:12.531Z,100488.00
2018-08-27T19:21:41.743Z,100497.00
2018-08-27T19:24:10.917Z,100493.00
2018-08-27T19:26:40.132Z,100505.00
2018-08-27T19:29:09.318Z,100505.00
2018-08-27T19:31:38.508Z,100502.00
2018-08-27T19:34:07.816Z,100505.00
2018-08-27T19:36:37.058Z,100507.00
2018-08-27T19:39:07.123Z,100508.00
2018-08-27T19:41:36.414Z,100514.00
2018-08-27T19:44:05.730Z,100513.00
2018-08-27T19:46:34.976Z,100517.00
2018-08-27T19:49:04.263Z,100511.00
2018-08-27T19:51:33.691Z,100523.00
2018-08-27T19:54:03.775Z,100526.00
2018-08-27T19:56:33.295Z,100525.00
2018-08-27T19:59:03.619Z,100532.00
2018-08-27T20:01:33.023Z,100506.00
2018-08-27T20:04:02.603Z,100536.00
2018-08-27T20:06:32.855Z,100538.00
2018-08-27T20:09:02.698Z,100533.00
2018-08-27T20:11:32.679Z,100543.00
2018-08-27T20:14:02.061Z,100546.00
2018-08-27T20:16:31.346Z,100541.00
2018-08-27T20:19:00.559Z,100556.00
2018-08-27T20:21:29.749Z,100551.00
2018-08-27T20:23:59.537Z,100557.00
2018-08-27T20:26:28.820Z,100563.00
2018-08-27T20:28:58.039Z,100564.00
2018-08-27T20:31:27.206Z,100563.00
2018-08-27T20:33:56.471Z,100565.00
2018-08-27T20:36:25.842Z,100574.00
2018-08-27T20:38:55.079Z,100566.00
2018-08-27T20:41:25.006Z,100563.00
2018-08-27T20:43:54.374Z,100571.00
2018-08-27T20:46:23.691Z,100572.00
2018-08-27T20:48:52.792Z,100569.00
2018-08-27T20:51:22.252Z,100576.00
2018-08-27T20:53:51.461Z,100575.00
2018-08-27T20:56:21.484Z,100578.00
2018-08-27T20:58:50.655Z,100572.00
2018-08-27T21:01:19.876Z,100579.00
2018-08-27T21:03:49.248Z,100588.00
2018-08-27T21:06:18.460Z,100593.00
2018-08-27T21:08:47.718Z,100590.00
2018-08-27T21:11:16.987Z,100594.00
2018-08-27T21:13:46.563Z,100601.00
2018-08-27T21:16:15.794Z,100597.00
2018-08-27T21:18:45.137Z,100600.00
2018-08-27T21:21:14.694Z,100602.00
2018-08-27T21:23:44.478Z,100602.00
2018-08-27T21:26:13.830Z,100609.00
2018-08-27T21:28:43.133Z,100607.00
2018-08-27T21:31:12.418Z,100600.00
2018-08-27T21:33:41.575Z,100609.00
2018-08-27T21:36:10.814Z,100607.00
2018-08-27T21:38:43.018Z,100605.00
2018-08-27T21:41:12.228Z,100614.00
2018-08-27T21:43:42.174Z,100608.00
2018-08-27T21:46:11.230Z,100613.00
2018-08-27T21:48:40.325Z,100620.00
2018-08-27T21:51:09.423Z,100628.00
2018-08-27T21:53:38.515Z,100628.00
2018-08-27T21:56:07.633Z,100635.00
2018-08-27T21:58:36.685Z,100629.00
2018-08-27T22:01:05.893Z,100636.00
2018-08-27T22:03:40.184Z,100642.00
2018-08-27T22:06:09.448Z,100643.00
2018-08-27T22:08:38.587Z,100633.00
2018-08-27T22:11:07.709Z,100633.00
2018-08-27T22:13:36.776Z,100636.00
2018-08-27T22:16:05.881Z,100643.00
2018-08-27T22:18:34.920Z,100649.00
2018-08-27T22:21:03.974Z,100648.00
2018-08-27T22:23:33.010Z,100642.00
2018-08-27T22:26:02.066Z,100650.00
2018-08-27T22:28:31.121Z,100645.00
2018-08-27T22:31:00.261Z,100651.00
2018-08-27T22:33:29.343Z,100654.00
2018-08-27T22:35:58.742Z,100649.00
2018-08-27T22:38:27.871Z,100651.00
2018-08-27T22:40:56.993Z,100650.00
2018-08-27T22:43:26.171Z,100646.00
2018-08-27T22:45:55.233Z,100651.00
2018-08-27T22:48:24.299Z,100652.00
2018-08-27T22:50:53.399Z,100654.00
2018-08-27T22:53:22.470Z,100651.00
2018-08-27T22:55:51.521Z,100659.00
2018-08-27T22:58:20.604Z,100655.00
2018-08-27T23:00:49.742Z,100654.00
2018-08-27T23:03:24.229Z,100668.00
2018-08-27T23:05:53.325Z,100632.00
2018-08-27T23:08:22.363Z,100671.00
2018-08-27T23:10:51.458Z,100683.00
2018-08-27T23:13:20.937Z,100685.00
2018-08-27T23:15:50.081Z,100687.00
2018-08-27T23:18:19.139Z,100682.00
2018-08-27T23:20:48.205Z,100684.00
2018-08-27T23:23:17.246Z,100690.00
2018-08-27T23:25:46.629Z,100691.00
2018-08-27T23:28:15.703Z,100682.00
2018-08-27T23:30:44.759Z,100694.00
2018-08-27T23:33:13.862Z,100696.00
2018-08-27T23:35:45.729Z,100695.00
2018-08-27T23:38:14.869Z,100700.00
2018-08-27T23:40:43.944Z,100699.00
2018-08-27T23:43:13.013Z,100695.00
2018-08-27T23:45:42.234Z,100698.00
2018-08-27T23:48:11.318Z,100696.00
2018-08-27T23:50:40.449Z,100707.00
2018-08-27T23:53:09.636Z,100704.00
2018-08-27T23:55:38.797Z,100709.00
2018-08-27T23:58:07.903Z,100699.00
